Time;durP1;ratioP1;P1;durP2;ratioP2;P2;SDS_P1;SDS_P2;PMS_P1;PMS_P2;Temp;Humidity;BMP_temperature;BMP_pressure;BME280_temperature;BME280_humidity;BME280_pressure;Samples;Min_cycle;Max_cycle;Signal;HPM_P1;HPM_P2
2020/12/12 00:00:55;;;;;;;6.00;3.87;;;3.90;99.90;;;;;;5034937;28;20455;-68
2020/12/12 00:03:22;;;;;;;7.00;3.60;;;3.90;99.90;;;;;;5034613;28;20921;-68
2020/12/12 00:05:48;;;;;;;5.30;3.10;;;3.90;99.90;;;;;;5034511;28;20489;-68
2020/12/12 00:08:14;;;;;;;4.20;3.03;;;3.90;99.90;;;;;;5034811;28;20449;-68
2020/12/12 00:10:41;;;;;;;4.10;3.50;;;3.90;99.90;;;;;;5034526;28;20489;-68
2020/12/12 00:13:08;;;;;;;6.57;4.33;;;3.90;99.90;;;;;;5034455;28;20931;-68
2020/12/12 00:15:34;;;;;;;5.07;3.47;;;3.90;99.90;;;;;;5034715;28;20449;-68
2020/12/12 00:18:00;;;;;;;4.70;3.40;;;3.90;99.90;;;;;;5034302;28;20929;-68
2020/12/12 00:20:28;;;;;;;5.50;3.20;;;3.90;99.90;;;;;;5034511;28;20459;-68
2020/12/12 00:22:54;;;;;;;4.80;3.60;;;3.90;99.90;;;;;;5034545;28;20434;-68
2020/12/12 00:25:20;;;;;;;6.30;3.63;;;3.90;99.90;;;;;;5034151;28;20824;-68
2020/12/12 00:27:47;;;;;;;6.20;3.83;;;4.10;99.90;;;;;;5034751;28;20458;-68
2020/12/12 00:30:13;;;;;;;6.17;3.90;;;4.10;99.90;;;;;;5034110;28;20474;-68
2020/12/12 00:32:39;;;;;;;6.67;4.10;;;4.10;99.90;;;;;;5034192;28;20493;-68
2020/12/12 00:35:06;;;;;;;3.30;2.93;;;4.10;99.90;;;;;;5034246;28;20462;-68
2020/12/12 00:37:33;;;;;;;5.03;3.80;;;4.10;99.90;;;;;;5034464;28;20423;-68
2020/12/12 00:39:59;;;;;;;5.13;3.70;;;4.10;99.90;;;;;;5034418;28;20462;-68
2020/12/12 00:42:25;;;;;;;3.43;3.13;;;4.20;99.90;;;;;;5033263;28;20442;-68
2020/12/12 00:44:51;;;;;;;4.73;3.83;;;4.20;99.90;;;;;;5034018;28;20443;-68
2020/12/12 00:47:17;;;;;;;6.70;3.90;;;4.10;99.90;;;;;;5033771;28;20450;-68
2020/12/12 00:49:44;;;;;;;5.50;3.87;;;4.10;99.90;;;;;;5033972;28;20445;-68
2020/12/12 00:52:10;;;;;;;4.40;3.53;;;4.10;99.90;;;;;;5033542;28;20482;-68
2020/12/12 00:54:37;;;;;;;3.80;3.03;;;4.10;99.90;;;;;;5033824;28;20450;-68
2020/12/12 00:57:03;;;;;;;4.67;2.90;;;4.10;99.90;;;;;;5033840;28;20438;-68
2020/12/12 00:59:30;;;;;;;5.00;3.53;;;4.10;99.90;;;;;;5033870;28;20443;-68
2020/12/12 01:01:56;;;;;;;4.23;3.40;;;4.10;99.90;;;;;;5033765;28;20493;-68
2020/12/12 01:04:22;;;;;;;5.70;3.90;;;4.10;99.90;;;;;;5033790;28;20454;-68
2020/12/12 01:06:48;;;;;;;6.27;3.63;;;4.10;99.90;;;;;;5033268;28;20479;-68
2020/12/12 01:09:15;;;;;;;5.90;4.10;;;4.10;99.90;;;;;;5033685;28;20446;-68
2020/12/12 01:11:42;;;;;;;5.70;3.37;;;4.10;99.90;;;;;;5033341;28;20482;-68
2020/12/12 01:14:08;;;;;;;5.10;3.57;;;4.20;99.90;;;;;;5034483;28;20450;-68
2020/12/12 01:16:34;;;;;;;4.80;3.20;;;4.10;99.90;;;;;;5033275;28;20830;-68
2020/12/12 01:19:00;;;;;;;4.30;3.00;;;4.00;99.90;;;;;;5033474;28;20449;-68
2020/12/12 01:21:27;;;;;;;4.10;3.40;;;4.10;99.90;;;;;;5033258;28;20474;-68
2020/12/12 01:23:53;;;;;;;4.00;3.40;;;4.10;99.90;;;;;;5033525;28;20438;-68
2020/12/12 01:26:19;;;;;;;7.13;3.63;;;4.10;99.90;;;;;;5033465;28;20439;-68
2020/12/12 01:28:46;;;;;;;4.87;3.53;;;4.00;99.90;;;;;;5033380;28;20438;-68
2020/12/12 01:31:13;;;;;;;4.43;3.57;;;4.00;99.90;;;;;;5033289;28;20487;-68
2020/12/12 01:33:40;;;;;;;7.13;3.87;;;4.00;99.90;;;;;;5033384;28;20445;-68
2020/12/12 01:36:06;;;;;;;6.20;3.83;;;4.00;99.90;;;;;;5033344;28;20442;-68
2020/12/12 01:38:33;;;;;;;5.50;3.23;;;4.00;99.90;;;;;;5033173;28;20453;-68
2020/12/12 01:40:59;;;;;;;5.67;3.87;;;3.90;99.90;;;;;;5032880;28;20455;-68
2020/12/12 01:43:25;;;;;;;6.77;3.90;;;3.90;99.90;;;;;;5033248;28;20446;-68
2020/12/12 01:45:52;;;;;;;4.80;3.93;;;4.00;99.90;;;;;;5033349;28;20799;-68
2020/12/12 01:48:18;;;;;;;6.30;4.67;;;4.00;99.90;;;;;;5033145;28;20438;-68
2020/12/12 01:50:45;;;;;;;6.70;4.17;;;4.00;99.90;;;;;;5032780;28;20466;-68
2020/12/12 01:53:13;;;;;;;5.87;4.63;;;4.00;99.90;;;;;;5033522;28;20818;-68
2020/12/12 01:55:46;;;;;;;5.57;3.97;;;3.90;99.90;;;;;;5037267;28;20446;-68
2020/12/12 01:58:13;;;;;;;7.47;4.63;;;3.90;99.90;;;;;;5036961;28;20431;-68
2020/12/12 02:00:39;;;;;;;6.90;4.23;;;3.80;99.90;;;;;;5037136;28;20819;-70
2020/12/12 02:03:09;;;;;;;5.50;3.83;;;3.80;99.90;;;;;;5037023;28;20453;-69
2020/12/12 02:05:38;;;;;;;5.77;4.33;;;3.90;99.90;;;;;;5037227;28;20470;-69
2020/12/12 02:08:07;;;;;;;5.73;4.27;;;3.90;99.90;;;;;;5037099;28;20526;-69
2020/12/12 02:10:34;;;;;;;5.93;3.83;;;3.90;99.90;;;;;;5036815;28;20458;-69
2020/12/12 02:13:02;;;;;;;7.43;3.83;;;3.90;99.90;;;;;;5036639;28;20941;-68
2020/12/12 02:15:28;;;;;;;6.50;4.63;;;4.00;99.90;;;;;;5036661;28;20431;-68
2020/12/12 02:17:54;;;;;;;6.73;4.10;;;3.90;99.90;;;;;;5036890;28;20446;-68
2020/12/12 02:20:21;;;;;;;6.73;4.40;;;3.90;99.90;;;;;;5036701;28;20469;-68
2020/12/12 02:22:48;;;;;;;6.33;4.60;;;3.90;99.90;;;;;;5036699;28;20807;-68
2020/12/12 02:25:15;;;;;;;5.70;3.73;;;4.00;99.90;;;;;;5036544;28;20442;-68
2020/12/12 02:27:41;;;;;;;6.20;4.27;;;4.00;99.90;;;;;;5036327;28;20442;-68
2020/12/12 02:30:08;;;;;;;7.47;4.23;;;3.90;99.90;;;;;;5036564;28;20462;-68
2020/12/12 02:32:34;;;;;;;5.20;3.60;;;3.90;99.90;;;;;;5036239;28;21008;-68
2020/12/12 02:35:01;;;;;;;6.30;4.40;;;4.00;99.90;;;;;;5036559;28;20442;-68
2020/12/12 02:37:27;;;;;;;6.93;4.27;;;4.00;99.90;;;;;;5036189;28;20976;-68
2020/12/12 02:39:54;;;;;;;7.60;5.00;;;4.00;99.90;;;;;;5036115;28;20942;-68
2020/12/12 02:42:20;;;;;;;8.80;5.23;;;4.00;99.90;;;;;;5036374;28;20449;-68
2020/12/12 02:44:51;;;;;;;6.60;4.50;;;4.00;99.90;;;;;;5036313;28;20443;-68
2020/12/12 02:47:18;;;;;;;7.43;4.97;;;3.90;99.90;;;;;;5036322;28;20458;-68
2020/12/12 02:49:44;;;;;;;7.23;4.63;;;3.90;99.90;;;;;;5036227;28;20442;-68
2020/12/12 02:52:11;;;;;;;8.20;4.93;;;3.90;99.90;;;;;;5036175;28;20485;-68
2020/12/12 02:54:37;;;;;;;5.07;4.43;;;3.80;99.90;;;;;;5036197;28;20446;-68
2020/12/12 02:57:04;;;;;;;7.97;4.50;;;3.70;99.90;;;;;;5035858;28;20953;-68
2020/12/12 02:59:31;;;;;;;7.87;5.17;;;3.80;99.90;;;;;;5036108;28;20500;-69
2020/12/12 03:01:57;;;;;;;7.00;4.53;;;3.70;99.90;;;;;;5036180;28;20459;-69
2020/12/12 03:04:23;;;;;;;8.07;5.20;;;3.80;99.90;;;;;;5035543;28;20446;-69
2020/12/12 03:06:49;;;;;;;8.07;5.40;;;3.80;99.90;;;;;;5035217;28;20898;-69
2020/12/12 03:09:15;;;;;;;6.97;5.13;;;3.70;99.90;;;;;;5035925;28;20447;-69
2020/12/12 03:11:41;;;;;;;8.30;5.20;;;3.70;99.90;;;;;;5035183;28;20479;-69
2020/12/12 03:14:08;;;;;;;8.23;5.23;;;3.80;99.90;;;;;;5035737;28;20450;-69
2020/12/12 03:16:35;;;;;;;8.60;5.17;;;3.90;99.90;;;;;;5035746;28;20438;-69
2020/12/12 03:19:01;;;;;;;9.73;4.90;;;3.90;99.90;;;;;;5035465;28;20796;-69
2020/12/12 03:21:27;;;;;;;8.50;5.50;;;4.00;99.90;;;;;;5035914;28;20451;-69
2020/12/12 03:23:53;;;;;;;5.20;4.47;;;4.00;99.90;;;;;;5035661;28;20442;-69
2020/12/12 03:26:20;;;;;;;7.60;5.30;;;4.10;99.90;;;;;;5035571;28;20439;-69
2020/12/12 03:28:46;;;;;;;8.17;5.47;;;4.20;99.90;;;;;;5035556;28;20792;-69
2020/12/12 03:31:13;;;;;;;11.73;5.60;;;4.20;99.90;;;;;;5035410;28;20485;-69
2020/12/12 03:33:39;;;;;;;10.10;5.20;;;4.30;99.90;;;;;;5035455;28;20443;-69
2020/12/12 03:36:05;;;;;;;7.50;5.30;;;4.30;99.90;;;;;;5035371;28;20443;-69
2020/12/12 03:38:31;;;;;;;6.47;4.23;;;4.20;99.90;;;;;;5035234;28;20439;-69
2020/12/12 03:40:57;;;;;;;6.83;4.33;;;4.20;99.90;;;;;;5035067;28;20459;-69
2020/12/12 03:43:25;;;;;;;9.23;5.90;;;4.20;99.90;;;;;;5035688;28;20455;-69
2020/12/12 03:45:51;;;;;;;8.23;5.03;;;4.30;99.90;;;;;;5035257;28;20529;-69
2020/12/12 03:48:18;;;;;;;7.20;4.80;;;4.20;99.90;;;;;;5035201;28;20442;-69
2020/12/12 03:50:44;;;;;;;8.23;4.90;;;4.20;99.90;;;;;;5035067;28;20471;-69
2020/12/12 03:53:10;;;;;;;10.80;4.83;;;4.20;99.90;;;;;;5035074;28;20820;-69
2020/12/12 03:55:36;;;;;;;7.40;5.07;;;4.20;99.90;;;;;;5035171;28;20440;-70
2020/12/12 03:58:03;;;;;;;7.30;4.83;;;4.20;99.90;;;;;;5034920;28;20788;-70
2020/12/12 04:00:29;;;;;;;6.70;5.03;;;4.20;99.90;;;;;;5034841;28;20455;-70
2020/12/12 04:02:55;;;;;;;7.87;4.77;;;4.20;99.90;;;;;;5034911;28;20847;-70
2020/12/12 04:05:22;;;;;;;9.20;4.90;;;4.30;99.90;;;;;;5034649;28;20482;-70
2020/12/12 04:07:48;;;;;;;7.70;5.10;;;4.30;99.90;;;;;;5034770;28;20450;-70
2020/12/12 04:10:14;;;;;;;7.17;4.60;;;4.30;99.90;;;;;;5034627;28;20455;-70
2020/12/12 04:12:40;;;;;;;7.00;4.73;;;4.30;99.90;;;;;;5034688;28;20849;-70
2020/12/12 04:15:07;;;;;;;8.93;5.40;;;4.30;99.90;;;;;;5034686;28;20450;-69
2020/12/12 04:17:33;;;;;;;8.03;5.37;;;4.30;99.90;;;;;;5034485;28;20816;-69
2020/12/12 04:19:59;;;;;;;9.27;5.30;;;4.30;99.90;;;;;;5034543;28;20458;-69
2020/12/12 04:22:26;;;;;;;8.50;4.67;;;4.30;99.90;;;;;;5034829;28;20439;-69
2020/12/12 04:24:52;;;;;;;6.27;4.63;;;4.30;99.90;;;;;;5034193;28;20446;-69
2020/12/12 04:27:19;;;;;;;8.47;5.60;;;4.40;99.90;;;;;;5034479;28;20443;-69
2020/12/12 04:29:45;;;;;;;6.63;4.80;;;4.40;99.90;;;;;;5034367;28;20450;-69
2020/12/12 04:32:11;;;;;;;6.17;4.60;;;4.40;99.90;;;;;;5033972;28;21015;-69
2020/12/12 04:34:37;;;;;;;6.70;4.90;;;4.40;99.90;;;;;;5034347;28;20533;-69
2020/12/12 04:37:04;;;;;;;7.77;5.50;;;4.40;99.90;;;;;;5033972;28;20934;-70
2020/12/12 04:39:31;;;;;;;8.47;4.87;;;4.40;99.90;;;;;;5034494;28;20442;-70
2020/12/12 04:41:58;;;;;;;8.70;4.60;;;4.40;99.90;;;;;;5034090;28;20467;-70
2020/12/12 04:44:24;;;;;;;8.53;5.47;;;4.30;99.90;;;;;;5034149;28;20447;-70
2020/12/12 04:46:51;;;;;;;9.00;5.37;;;4.20;99.90;;;;;;5033829;28;20938;-70
2020/12/12 04:49:17;;;;;;;6.13;4.73;;;4.20;99.90;;;;;;5034076;28;20454;-69
2020/12/12 04:51:46;;;;;;;8.80;5.23;;;4.20;99.90;;;;;;5033909;28;20487;-69
2020/12/12 04:54:18;;;;;;;8.50;5.17;;;4.10;99.90;;;;;;5033985;28;20449;-69
2020/12/12 04:56:46;;;;;;;8.00;4.53;;;4.10;99.90;;;;;;5033990;28;20427;-69
2020/12/12 04:59:14;;;;;;;9.10;5.83;;;4.10;99.90;;;;;;5033579;28;20450;-69
2020/12/12 05:01:41;;;;;;;6.50;5.10;;;4.10;99.90;;;;;;5034076;28;20451;-69
2020/12/12 05:04:08;;;;;;;7.37;5.10;;;4.10;99.90;;;;;;5033777;28;20443;-69
2020/12/12 05:06:35;;;;;;;7.80;5.10;;;4.20;99.90;;;;;;5033589;28;20474;-69
2020/12/12 05:09:01;;;;;;;8.30;4.80;;;4.10;99.90;;;;;;5033769;28;20470;-69
2020/12/12 05:11:27;;;;;;;5.77;4.30;;;4.20;99.90;;;;;;5033495;28;20478;-69
2020/12/12 05:13:54;;;;;;;7.47;4.90;;;4.10;99.90;;;;;;5033631;28;20450;-69
2020/12/12 05:16:21;;;;;;;8.80;4.70;;;4.10;99.90;;;;;;5033621;28;20450;-69
2020/12/12 05:18:48;;;;;;;8.50;5.50;;;4.10;99.90;;;;;;5033266;28;20439;-69
2020/12/12 05:21:15;;;;;;;7.00;4.80;;;4.10;99.90;;;;;;5033431;28;20465;-69
2020/12/12 05:23:41;;;;;;;6.60;5.17;;;4.20;99.90;;;;;;5033226;28;20968;-69
2020/12/12 05:26:12;;;;;;;6.87;4.80;;;4.10;99.90;;;;;;5033094;28;20442;-69
2020/12/12 05:28:39;;;;;;;7.90;4.90;;;4.10;99.90;;;;;;5032949;28;20481;-69
2020/12/12 05:31:06;;;;;;;6.23;4.17;;;4.00;99.90;;;;;;5033271;28;20491;-69
2020/12/12 05:33:32;;;;;;;6.03;4.30;;;4.10;99.90;;;;;;5033370;28;20439;-69
2020/12/12 05:35:59;;;;;;;7.03;4.93;;;4.10;99.90;;;;;;5033391;28;20807;-70
2020/12/12 05:38:25;;;;;;;6.60;4.07;;;4.10;99.90;;;;;;5033248;28;20446;-70
2020/12/12 05:40:55;;;;;;;7.00;4.33;;;4.00;99.90;;;;;;5033223;28;20466;-70
2020/12/12 05:43:29;;;;;;;5.50;4.00;;;4.00;99.90;;;;;;5033342;28;20816;-70
2020/12/12 05:45:55;;;;;;;7.67;5.00;;;4.00;99.90;;;;;;5033332;28;20422;-70
2020/12/12 05:48:23;;;;;;;7.07;4.87;;;4.00;99.90;;;;;;5033220;28;20536;-70
2020/12/12 05:50:49;;;;;;;6.93;4.00;;;4.10;99.90;;;;;;5033193;28;20466;-69
2020/12/12 05:53:16;;;;;;;6.30;4.50;;;4.10;99.90;;;;;;5032866;28;21005;-70
2020/12/12 05:55:45;;;;;;;5.67;4.20;;;4.10;99.90;;;;;;5033155;28;20489;-70
2020/12/12 05:58:14;;;;;;;5.57;4.23;;;4.10;99.90;;;;;;5033408;28;20446;-70
2020/12/12 06:00:41;;;;;;;6.00;4.20;;;4.10;99.90;;;;;;5032737;28;20865;-70
2020/12/12 06:03:29;;;;;;;5.20;3.73;;;4.10;99.90;;;;;;5032781;28;20445;-70
2020/12/12 06:06:03;;;;;;;6.27;4.00;;;4.10;99.90;;;;;;5033345;28;20499;-70
2020/12/12 06:08:33;;;;;;;5.70;3.80;;;4.10;99.90;;;;;;5034218;28;20422;-70
2020/12/12 06:11:04;;;;;;;6.47;3.73;;;4.10;99.90;;;;;;5033002;28;20474;-70
2020/12/12 06:13:35;;;;;;;6.30;3.67;;;4.10;99.90;;;;;;5032762;28;20890;-69
2020/12/12 06:16:04;;;;;;;6.50;4.20;;;4.10;99.90;;;;;;5033070;28;20466;-69
2020/12/12 06:18:42;;;;;;;6.37;4.30;;;4.20;99.90;;;;;;5032679;28;20445;-69
2020/12/12 06:21:09;;;;;;;8.10;4.53;;;4.20;99.90;;;;;;5032934;28;20490;-69
2020/12/12 06:23:38;;;;;;;5.10;4.03;;;4.10;99.90;;;;;;5033200;28;20441;-69
2020/12/12 06:26:04;;;;;;;6.10;4.30;;;4.20;99.90;;;;;;5032892;28;20458;-69
2020/12/12 06:28:31;;;;;;;7.37;4.80;;;4.10;99.90;;;;;;5032912;28;20445;-69
2020/12/12 06:30:58;;;;;;;7.53;4.67;;;4.10;99.90;;;;;;5032786;28;20477;-69
2020/12/12 06:33:25;;;;;;;8.10;4.90;;;4.10;99.90;;;;;;5032762;28;20485;-69
2020/12/12 06:35:52;;;;;;;5.97;4.30;;;4.10;99.90;;;;;;5032817;28;20816;-69
2020/12/12 06:38:23;;;;;;;6.40;4.40;;;4.10;99.90;;;;;;5032795;28;20522;-69
2020/12/12 06:40:51;;;;;;;11.20;5.03;;;4.00;99.90;;;;;;5033994;28;20466;-70
2020/12/12 06:43:28;;;;;;;8.00;5.07;;;4.00;99.90;;;;;;5036114;28;20930;-69
2020/12/12 06:45:55;;;;;;;8.37;5.30;;;4.00;99.90;;;;;;5036426;28;20834;-69
2020/12/12 06:48:23;;;;;;;8.73;5.07;;;4.00;99.90;;;;;;5036372;28;20445;-69
2020/12/12 06:50:50;;;;;;;8.97;5.27;;;4.00;99.90;;;;;;5036208;28;20463;-70
2020/12/12 06:53:21;;;;;;;8.43;4.47;;;3.90;99.90;;;;;;5035908;28;21016;-70
2020/12/12 06:56:07;;;;;;;8.13;4.67;;;4.00;99.90;;;;;;5035888;28;20469;-70
2020/12/12 06:58:33;;;;;;;7.23;5.50;;;4.00;99.90;;;;;;5036200;28;20445;-70
2020/12/12 07:00:59;;;;;;;9.40;5.60;;;4.00;99.90;;;;;;5036026;28;20462;-70
2020/12/12 07:03:26;;;;;;;10.37;6.03;;;4.00;99.90;;;;;;5036005;28;20816;-70
2020/12/12 07:06:05;;;;;;;13.63;4.93;;;4.00;99.90;;;;;;5035678;28;20482;-70
2020/12/12 07:08:32;;;;;;;9.90;5.47;;;4.10;99.90;;;;;;5035943;28;20449;-70
2020/12/12 07:11:02;;;;;;;9.80;5.87;;;4.10;99.90;;;;;;5035822;28;20466;-70
2020/12/12 07:13:29;;;;;;;8.60;5.27;;;4.10;99.90;;;;;;5035843;28;20473;-70
2020/12/12 07:15:55;;;;;;;8.20;5.10;;;4.10;99.90;;;;;;5035837;28;20450;-70
2020/12/12 07:18:22;;;;;;;8.43;5.00;;;4.10;99.90;;;;;;5035765;28;20542;-70
2020/12/12 07:20:49;;;;;;;7.67;4.87;;;4.20;99.90;;;;;;5035354;28;20988;-70
2020/12/12 07:23:17;;;;;;;8.20;5.07;;;4.20;99.90;;;;;;5035346;28;20497;-70
2020/12/12 07:25:45;;;;;;;10.80;5.63;;;4.20;99.90;;;;;;5035334;28;20934;-70
2020/12/12 07:28:12;;;;;;;5.83;4.63;;;4.20;99.90;;;;;;5035610;28;20809;-69
2020/12/12 07:30:38;;;;;;;6.50;4.90;;;4.20;99.90;;;;;;5035527;28;20815;-68
2020/12/12 07:33:04;;;;;;;7.50;5.10;;;4.20;99.90;;;;;;5035179;28;20973;-68
2020/12/12 07:35:31;;;;;;;6.30;4.40;;;4.20;99.90;;;;;;5035534;28;20415;-68
2020/12/12 07:38:01;;;;;;;8.10;5.10;;;4.30;99.90;;;;;;5035965;28;20442;-68
2020/12/12 07:40:31;;;;;;;7.10;4.40;;;4.30;99.90;;;;;;5035347;28;20467;-68
2020/12/12 07:42:59;;;;;;;6.23;3.70;;;4.20;99.90;;;;;;5035289;28;20918;-68
2020/12/12 07:45:39;;;;;;;7.00;4.33;;;4.20;99.90;;;;;;5035020;28;20930;-68
2020/12/12 07:48:08;;;;;;;7.90;4.43;;;4.30;99.90;;;;;;5034999;28;20426;-68
2020/12/12 07:50:35;;;;;;;6.30;4.23;;;4.20;99.90;;;;;;5034924;28;20463;-68
2020/12/12 07:53:06;;;;;;;7.10;5.00;;;4.30;99.90;;;;;;5034524;28;21027;-68
2020/12/12 07:55:33;;;;;;;7.90;4.33;;;4.30;99.90;;;;;;5034857;28;20902;-68
2020/12/12 07:58:01;;;;;;;6.73;4.20;;;4.30;99.90;;;;;;5035081;28;20533;-68
2020/12/12 08:00:27;;;;;;;7.03;4.53;;;4.20;99.90;;;;;;5035326;28;20505;-68
2020/12/12 08:02:56;;;;;;;5.20;3.50;;;4.40;99.90;;;;;;5034972;28;20466;-68
2020/12/12 08:05:23;;;;;;;6.97;4.23;;;4.30;99.90;;;;;;5034566;28;20565;-68
2020/12/12 08:07:50;;;;;;;4.20;3.67;;;4.40;99.90;;;;;;5035702;28;20466;-68
2020/12/12 08:10:16;;;;;;;6.03;4.03;;;4.40;99.90;;;;;;5035392;28;20470;-68
2020/12/12 08:12:43;;;;;;;8.70;4.13;;;4.40;99.90;;;;;;5034658;28;20498;-68
2020/12/12 08:15:14;;;;;;;5.43;3.77;;;4.50;99.90;;;;;;5034719;28;20438;-69
2020/12/12 08:17:41;;;;;;;3.83;3.20;;;4.50;99.90;;;;;;5034728;28;20462;-69
2020/12/12 08:20:13;;;;;;;3.90;3.20;;;4.60;99.90;;;;;;5034595;28;20466;-69
2020/12/12 08:22:40;;;;;;;3.90;3.50;;;4.70;99.90;;;;;;5034657;28;20473;-69
2020/12/12 08:25:08;;;;;;;4.80;3.30;;;4.70;99.90;;;;;;5034343;28;20455;-69
2020/12/12 08:27:34;;;;;;;5.70;3.70;;;4.70;99.90;;;;;;5034515;28;20439;-69
2020/12/12 08:30:02;;;;;;;4.27;3.40;;;4.70;99.90;;;;;;5034361;28;20462;-69
2020/12/12 08:32:31;;;;;;;5.30;4.13;;;4.70;99.90;;;;;;5034342;28;20486;-69
2020/12/12 08:35:18;;;;;;;6.07;3.70;;;4.70;99.90;;;;;;5034894;28;20442;-69
2020/12/12 08:37:56;;;;;;;4.10;3.40;;;4.80;99.90;;;;;;5034335;28;20441;-69
2020/12/12 08:40:24;;;;;;;3.53;2.93;;;4.80;99.90;;;;;;5034247;28;20462;-69
2020/12/12 08:42:59;;;;;;;7.07;3.23;;;4.80;99.90;;;;;;5033885;28;20944;-69
2020/12/12 08:45:27;;;;;;;4.17;3.60;;;4.90;99.90;;;;;;5034747;28;20430;-70
2020/12/12 08:48:05;;;;;;;8.73;4.17;;;5.00;99.90;;;;;;5034077;28;20861;-70
2020/12/12 08:50:49;;;;;;;7.13;4.30;;;5.00;99.90;;;;;;5034032;28;20454;-70
2020/12/12 08:53:24;;;;;;;4.87;3.63;;;5.20;99.90;;;;;;5033974;28;20482;-70
2020/12/12 08:56:05;;;;;;;6.37;3.57;;;5.20;99.90;;;;;;5033944;28;20451;-70
2020/12/12 08:58:42;;;;;;;4.77;3.40;;;5.40;99.90;;;;;;5034169;28;20439;-70
2020/12/12 09:01:14;;;;;;;12.87;5.33;;;5.60;99.90;;;;;;5033488;28;20469;-70
2020/12/12 09:04:01;;;;;;;4.57;3.83;;;5.80;99.90;;;;;;5033034;28;20896;-70
2020/12/12 09:06:30;;;;;;;4.03;3.13;;;6.00;99.90;;;;;;5033340;28;20474;-70
2020/12/12 09:09:09;;;;;;;4.00;3.43;;;6.10;99.90;;;;;;5033780;28;20454;-67
2020/12/12 09:11:36;;;;;;;4.30;3.30;;;6.10;99.90;;;;;;5033638;28;20826;-68
2020/12/12 09:14:03;;;;;;;2.97;2.67;;;6.10;99.90;;;;;;5033663;28;20438;-69
2020/12/12 09:16:29;;;;;;;3.37;2.70;;;6.00;99.90;;;;;;5033341;28;20444;-69
2020/12/12 09:18:57;;;;;;;3.80;2.97;;;6.00;99.90;;;;;;5033576;28;20442;-69
2020/12/12 09:21:24;;;;;;;3.57;3.27;;;5.90;99.90;;;;;;5033533;28;20501;-68
2020/12/12 09:23:50;;;;;;;3.40;2.90;;;5.90;99.90;;;;;;5033509;28;20445;-71
2020/12/12 09:26:18;;;;;;;4.00;3.27;;;5.80;99.90;;;;;;5033238;28;20439;-71
2020/12/12 09:28:44;;;;;;;3.97;3.00;;;5.80;99.90;;;;;;5033750;28;20427;-68
2020/12/12 09:31:10;;;;;;;3.30;3.00;;;5.70;99.90;;;;;;5033370;28;20473;-68
2020/12/12 09:33:36;;;;;;;3.97;3.20;;;5.70;99.90;;;;;;5033057;28;20977;-68
2020/12/12 09:36:04;;;;;;;5.50;2.80;;;5.70;99.90;;;;;;5033111;28;20430;-68
2020/12/12 09:38:30;;;;;;;3.50;3.20;;;5.70;99.90;;;;;;5033393;28;20546;-68
2020/12/12 09:40:57;;;;;;;3.83;3.00;;;5.70;99.90;;;;;;5033324;28;20554;-68
2020/12/12 09:43:23;;;;;;;3.90;3.30;;;5.80;99.90;;;;;;5033034;28;20430;-68
2020/12/12 09:45:49;;;;;;;3.50;3.13;;;5.80;99.90;;;;;;5033557;28;20423;-68
2020/12/12 09:48:16;;;;;;;4.63;3.03;;;5.90;99.90;;;;;;5033339;28;20431;-68
2020/12/12 09:50:42;;;;;;;3.90;2.60;;;5.90;99.90;;;;;;5033249;28;20493;-68
2020/12/12 09:53:10;;;;;;;3.50;2.77;;;6.00;99.90;;;;;;5033144;28;20470;-68
2020/12/12 09:55:38;;;;;;;3.70;2.80;;;6.00;99.90;;;;;;5033253;28;20431;-68
2020/12/12 09:58:05;;;;;;;3.70;3.00;;;6.00;99.90;;;;;;5033239;28;20418;-68
2020/12/12 10:00:32;;;;;;;4.20;2.97;;;6.00;99.90;;;;;;5033142;28;20513;-68
2020/12/12 10:02:59;;;;;;;2.93;2.67;;;6.00;99.90;;;;;;5033181;28;20490;-68
2020/12/12 10:05:25;;;;;;;2.40;2.20;;;5.90;99.90;;;;;;5032876;28;20521;-68
2020/12/12 10:07:54;;;;;;;4.20;3.20;;;5.90;99.90;;;;;;5033137;28;20470;-68
2020/12/12 10:10:21;;;;;;;3.20;2.57;;;6.00;99.90;;;;;;5032749;28;20459;-68
2020/12/12 10:12:47;;;;;;;3.40;2.93;;;6.00;99.90;;;;;;5033034;28;20490;-68
2020/12/12 10:15:15;;;;;;;4.33;2.70;;;6.00;99.90;;;;;;5035383;28;20434;-68
2020/12/12 10:17:41;;;;;;;3.23;2.70;;;6.10;99.90;;;;;;5037458;28;20434;-69
2020/12/12 10:20:07;;;;;;;2.73;2.53;;;6.10;99.90;;;;;;5036875;28;20461;-69
2020/12/12 10:22:33;;;;;;;3.40;2.87;;;6.20;99.90;;;;;;5036886;28;20426;-70
2020/12/12 10:25:00;;;;;;;2.50;2.30;;;6.20;99.90;;;;;;5036802;28;20427;-70
2020/12/12 10:27:27;;;;;;;2.70;2.10;;;6.30;99.90;;;;;;5036775;28;20427;-70
2020/12/12 10:29:53;;;;;;;3.27;2.50;;;6.30;99.90;;;;;;5036681;28;20419;-69
2020/12/12 10:32:19;;;;;;;2.80;2.33;;;6.20;99.90;;;;;;5036620;28;20490;-69
2020/12/12 10:34:45;;;;;;;3.03;2.50;;;6.20;99.90;;;;;;5036660;28;20446;-69
2020/12/12 10:37:11;;;;;;;2.43;2.23;;;6.20;99.90;;;;;;5036647;28;20437;-69
2020/12/12 10:39:42;;;;;;;2.73;2.20;;;6.30;99.90;;;;;;5036739;28;20418;-69
2020/12/12 10:42:08;;;;;;;2.77;2.17;;;6.30;99.90;;;;;;5036205;28;20891;-68
2020/12/12 10:44:35;;;;;;;3.00;2.40;;;6.30;99.90;;;;;;5036479;28;20438;-68
2020/12/12 10:47:01;;;;;;;2.80;2.47;;;6.20;99.90;;;;;;5036462;28;20423;-68
2020/12/12 10:49:27;;;;;;;2.40;2.20;;;6.20;99.90;;;;;;5036389;28;20427;-68
2020/12/12 10:51:54;;;;;;;3.70;2.37;;;6.20;99.90;;;;;;5036211;28;20482;-68
2020/12/12 10:54:25;;;;;;;2.30;2.10;;;6.20;99.90;;;;;;5036335;28;20431;-69
2020/12/12 10:56:52;;;;;;;2.33;2.13;;;6.20;99.90;;;;;;5036798;28;20450;-69
2020/12/12 10:59:18;;;;;;;2.90;2.67;;;6.20;99.90;;;;;;5036209;28;20423;-69
2020/12/12 11:01:45;;;;;;;2.83;1.90;;;6.20;99.90;;;;;;5036087;28;20469;-69
2020/12/12 11:04:11;;;;;;;2.77;2.37;;;6.20;99.90;;;;;;5036006;28;20423;-70
2020/12/12 11:06:37;;;;;;;3.77;2.40;;;6.20;99.90;;;;;;5035972;28;20470;-71
2020/12/12 11:09:04;;;;;;;3.17;2.67;;;6.20;99.90;;;;;;5035886;28;20800;-72
2020/12/12 11:11:31;;;;;;;2.53;2.23;;;6.30;99.90;;;;;;5035739;28;20470;-70
2020/12/12 11:13:57;;;;;;;2.20;2.00;;;6.20;99.90;;;;;;5035548;28;20502;-70
2020/12/12 11:16:24;;;;;;;3.50;2.57;;;6.20;99.90;;;;;;5035814;28;20450;-70
2020/12/12 11:18:53;;;;;;;3.07;2.80;;;6.20;99.90;;;;;;5035664;28;20482;-71
2020/12/12 11:21:19;;;;;;;3.43;2.87;;;6.20;99.90;;;;;;5035605;28;20473;-72
2020/12/12 11:23:46;;;;;;;3.90;2.83;;;6.30;99.90;;;;;;5035512;28;20442;-72
2020/12/12 11:26:12;;;;;;;3.00;2.80;;;6.20;99.90;;;;;;5034622;28;20439;-72
2020/12/12 11:28:39;;;;;;;4.10;3.00;;;6.20;99.90;;;;;;5035513;28;20439;-72
2020/12/12 11:31:05;;;;;;;4.73;2.90;;;6.20;99.90;;;;;;5035373;28;20466;-70
2020/12/12 11:33:32;;;;;;;4.00;3.10;;;6.20;99.90;;;;;;5035065;28;20462;-70
2020/12/12 11:36:11;;;;;;;3.87;2.97;;;6.10;99.90;;;;;;5035442;28;20542;-72
2020/12/12 11:38:43;;;;;;;73.73;8.70;;;6.10;99.90;;;;;;5035232;28;20446;-72
2020/12/12 11:41:25;;;;;;;9.27;6.60;;;6.20;99.90;;;;;;5034963;28;20557;-70
2020/12/12 11:46:33;;;;;;;6.60;4.07;;;6.30;99.90;;;;;;5031534;28;20437;-70
2020/12/12 11:48:59;;;;;;;7.93;4.00;;;6.30;99.90;;;;;;5034765;28;20876;-70
2020/12/12 11:51:27;;;;;;;4.77;3.73;;;6.30;99.90;;;;;;5035000;28;20498;-70
2020/12/12 11:53:53;;;;;;;4.43;3.50;;;6.30;99.90;;;;;;5034818;28;20510;-70
2020/12/12 11:56:22;;;;;;;5.17;2.73;;;6.30;99.90;;;;;;5034623;28;20934;-70
2020/12/12 11:58:49;;;;;;;4.03;3.13;;;6.40;99.90;;;;;;5034535;28;20446;-70
2020/12/12 12:01:22;;;;;;;4.37;3.40;;;6.40;99.90;;;;;;5034864;28;20467;-69
2020/12/12 12:03:49;;;;;;;3.90;3.30;;;6.40;99.90;;;;;;5034695;28;20438;-70
2020/12/12 12:06:15;;;;;;;4.40;3.10;;;6.50;99.90;;;;;;5034658;28;20486;-70
2020/12/12 12:08:51;;;;;;;3.70;2.17;;;6.50;99.90;;;;;;5034900;28;20522;-70
2020/12/12 12:11:21;;;;;;;4.53;3.47;;;6.50;99.90;;;;;;5034788;28;20498;-70
2020/12/12 12:13:47;;;;;;;4.20;3.30;;;6.50;99.90;;;;;;5035646;28;20513;-70
2020/12/12 12:16:19;;;;;;;3.37;3.07;;;6.50;99.90;;;;;;5034445;28;20965;-70
2020/12/12 12:18:45;;;;;;;3.30;2.90;;;6.50;99.90;;;;;;5035063;28;20455;-70
2020/12/12 12:21:11;;;;;;;5.73;2.70;;;6.50;99.90;;;;;;5034813;28;20817;-70
2020/12/12 12:23:38;;;;;;;2.80;2.60;;;6.50;99.90;;;;;;5034825;28;20434;-70
2020/12/12 12:26:05;;;;;;;2.90;2.53;;;6.50;99.90;;;;;;5034449;28;20447;-70
2020/12/12 12:28:31;;;;;;;2.87;2.60;;;6.60;99.90;;;;;;5034474;28;20815;-70
2020/12/12 12:30:58;;;;;;;4.23;2.80;;;6.70;99.90;;;;;;5034420;28;20577;-70
2020/12/12 12:33:24;;;;;;;3.10;2.60;;;6.70;99.90;;;;;;5034348;28;20486;-70
2020/12/12 12:35:50;;;;;;;4.47;2.80;;;6.70;99.90;;;;;;5034296;28;20443;-69
2020/12/12 12:38:17;;;;;;;4.87;3.40;;;6.60;99.90;;;;;;5033874;28;20976;-69
2020/12/12 12:40:43;;;;;;;5.27;3.93;;;6.60;99.90;;;;;;5034155;28;20458;-69
2020/12/12 12:43:10;;;;;;;3.40;3.10;;;6.60;99.90;;;;;;5034203;28;20442;-69
2020/12/12 12:45:36;;;;;;;5.77;3.93;;;6.60;99.90;;;;;;5033849;28;20442;-69
2020/12/12 12:48:03;;;;;;;4.47;4.07;;;6.60;99.90;;;;;;5033825;28;20446;-69
2020/12/12 12:50:36;;;;;;;5.90;3.93;;;6.60;99.90;;;;;;5034026;28;20473;-69
2020/12/12 12:53:04;;;;;;;3.33;3.03;;;6.60;99.90;;;;;;5033699;28;20985;-69
2020/12/12 12:55:31;;;;;;;3.00;2.77;;;6.70;99.90;;;;;;5033955;28;20443;-70
2020/12/12 12:57:58;;;;;;;3.60;3.30;;;6.70;99.90;;;;;;5033969;28;20446;-69
2020/12/12 13:00:26;;;;;;;3.43;3.13;;;6.70;99.90;;;;;;5033528;28;20470;-69
2020/12/12 13:02:52;;;;;;;3.33;3.00;;;6.80;99.90;;;;;;5033870;28;20443;-69